sensor_id;sensor_type;location;lat;lon;timestamp;pressure;altitude;pressure_sealevel;temperature;humidity
46598;BME280;32318;48.858;8.252;2022-11-14T00:03:56;100319.47;;;6.85;83.46
46598;BME280;32318;48.858;8.252;2022-11-14T00:11:57;100300.06;;;6.84;83.71
46598;BME280;32318;48.858;8.252;2022-11-14T00:19:57;100298.66;;;6.90;83.70
46598;BME280;32318;48.858;8.252;2022-11-14T00:27:58;100294.47;;;6.87;83.37
46598;BME280;32318;48.858;8.252;2022-11-14T00:35:58;100295.59;;;6.85;83.54
46598;BME280;32318;48.858;8.252;2022-11-14T00:43:58;100287.63;;;6.85;83.88
46598;BME280;32318;48.858;8.252;2022-11-14T00:51:59;100293.22;;;6.82;83.59
46598;BME280;32318;48.858;8.252;2022-11-14T00:59:59;100288.59;;;6.84;83.60
46598;BME280;32318;48.858;8.252;2022-11-14T01:07:59;100291.38;;;6.82;83.62
46598;BME280;32318;48.858;8.252;2022-11-14T01:16:00;100292.25;;;6.83;83.78
46598;BME280;32318;48.858;8.252;2022-11-14T01:24:00;100285.66;;;6.77;83.48
46598;BME280;32318;48.858;8.252;2022-11-14T01:32:00;100259.13;;;6.77;83.71
46598;BME280;32318;48.858;8.252;2022-11-14T01:40:01;100239.28;;;6.81;84.04
46598;BME280;32318;48.858;8.252;2022-11-14T01:48:01;100233.69;;;6.84;83.81
46598;BME280;32318;48.858;8.252;2022-11-14T01:56:03;100218.75;;;6.83;83.74
46598;BME280;32318;48.858;8.252;2022-11-14T02:04:05;100207.72;;;6.88;83.73
46598;BME280;32318;48.858;8.252;2022-11-14T02:12:07;100193.47;;;6.89;83.84
46598;BME280;32318;48.858;8.252;2022-11-14T02:28:09;100176.19;;;6.85;84.10
46598;BME280;32318;48.858;8.252;2022-11-14T02:36:09;100181.19;;;6.88;83.98
46598;BME280;32318;48.858;8.252;2022-11-14T02:44:10;100162.75;;;6.86;83.54
46598;BME280;32318;48.858;8.252;2022-11-14T02:52:10;100160.25;;;6.85;83.24
46598;BME280;32318;48.858;8.252;2022-11-14T03:00:11;100166.81;;;6.81;83.05
46598;BME280;32318;48.858;8.252;2022-11-14T03:08:11;100167.22;;;6.76;83.15
46598;BME280;32318;48.858;8.252;2022-11-14T03:16:12;100173.94;;;6.70;83.03
46598;BME280;32318;48.858;8.252;2022-11-14T03:24:13;100158.75;;;6.63;82.99
46598;BME280;32318;48.858;8.252;2022-11-14T03:32:14;100151.88;;;6.60;83.06
46598;BME280;32318;48.858;8.252;2022-11-14T03:40:14;100153.28;;;6.44;83.01
46598;BME280;32318;48.858;8.252;2022-11-14T03:48:14;100147.41;;;6.41;82.88
46598;BME280;32318;48.858;8.252;2022-11-14T03:56:15;100144.06;;;6.29;82.73
46598;BME280;32318;48.858;8.252;2022-11-14T04:04:15;100138.63;;;6.21;82.53
46598;BME280;32318;48.858;8.252;2022-11-14T04:12:15;100131.91;;;6.17;82.91
46598;BME280;32318;48.858;8.252;2022-11-14T04:20:16;100122.72;;;6.21;82.92
46598;BME280;32318;48.858;8.252;2022-11-14T04:28:16;100115.88;;;6.28;82.99
46598;BME280;32318;48.858;8.252;2022-11-14T04:36:16;100120.63;;;6.34;83.14
46598;BME280;32318;48.858;8.252;2022-11-14T04:44:16;100113.63;;;6.33;82.91
46598;BME280;32318;48.858;8.252;2022-11-14T04:52:17;100117.00;;;6.35;83.12
46598;BME280;32318;48.858;8.252;2022-11-14T05:00:17;100120.63;;;6.34;82.88
46598;BME280;32318;48.858;8.252;2022-11-14T05:08:17;100113.78;;;6.32;83.02
46598;BME280;32318;48.858;8.252;2022-11-14T05:16:18;100104.16;;;6.21;82.59
46598;BME280;32318;48.858;8.252;2022-11-14T05:24:18;100103.13;;;5.92;81.61
46598;BME280;32318;48.858;8.252;2022-11-14T05:32:18;100098.75;;;5.62;81.90
46598;BME280;32318;48.858;8.252;2022-11-14T05:40:19;100076.69;;;5.52;82.54
46598;BME280;32318;48.858;8.252;2022-11-14T05:48:19;100072.19;;;5.42;82.54
46598;BME280;32318;48.858;8.252;2022-11-14T05:56:19;100050.88;;;5.34;82.91
46598;BME280;32318;48.858;8.252;2022-11-14T06:04:20;100067.00;;;5.31;82.40
46598;BME280;32318;48.858;8.252;2022-11-14T06:12:20;100052.63;;;5.24;82.95
46598;BME280;32318;48.858;8.252;2022-11-14T06:20:20;100046.00;;;5.39;82.91
46598;BME280;32318;48.858;8.252;2022-11-14T06:28:20;100044.72;;;5.33;83.08
46598;BME280;32318;48.858;8.252;2022-11-14T06:36:21;100025.09;;;5.36;83.03
46598;BME280;32318;48.858;8.252;2022-11-14T06:44:21;100028.72;;;5.45;83.38
46598;BME280;32318;48.858;8.252;2022-11-14T06:52:21;100039.06;;;5.48;83.26
46598;BME280;32318;48.858;8.252;2022-11-14T07:00:22;100047.78;;;5.29;83.08
46598;BME280;32318;48.858;8.252;2022-11-14T07:08:22;100063.22;;;5.24;82.80
46598;BME280;32318;48.858;8.252;2022-11-14T07:16:30;100065.31;;;5.20;82.94
46598;BME280;32318;48.858;8.252;2022-11-14T07:24:31;100083.44;;;5.25;82.43
46598;BME280;32318;48.858;8.252;2022-11-14T07:32:31;100076.47;;;5.24;82.93
46598;BME280;32318;48.858;8.252;2022-11-14T07:40:31;100089.63;;;5.45;82.75
46598;BME280;32318;48.858;8.252;2022-11-14T07:48:32;100083.81;;;5.61;82.37
46598;BME280;32318;48.858;8.252;2022-11-14T07:56:32;100087.47;;;5.70;82.52
46598;BME280;32318;48.858;8.252;2022-11-14T08:04:32;100086.78;;;5.77;82.34
46598;BME280;32318;48.858;8.252;2022-11-14T08:12:33;100086.78;;;5.87;82.09
46598;BME280;32318;48.858;8.252;2022-11-14T08:20:33;100096.91;;;6.03;81.84
46598;BME280;32318;48.858;8.252;2022-11-14T08:28:33;100092.72;;;6.10;81.56
46598;BME280;32318;48.858;8.252;2022-11-14T08:36:34;100086.84;;;6.17;81.23
46598;BME280;32318;48.858;8.252;2022-11-14T08:44:34;100091.31;;;6.26;81.70
46598;BME280;32318;48.858;8.252;2022-11-14T08:52:34;100094.66;;;6.28;81.49
46598;BME280;32318;48.858;8.252;2022-11-14T09:00:35;100102.34;;;6.31;81.43
46598;BME280;32318;48.858;8.252;2022-11-14T09:08:35;100091.88;;;6.20;81.33
46598;BME280;32318;48.858;8.252;2022-11-14T09:16:35;100076.81;;;6.30;81.65
46598;BME280;32318;48.858;8.252;2022-11-14T09:24:36;100088.78;;;6.34;81.07
46598;BME280;32318;48.858;8.252;2022-11-14T09:32:36;100085.31;;;6.43;81.19
46598;BME280;32318;48.858;8.252;2022-11-14T09:40:50;100075.97;;;6.39;81.53
46598;BME280;32318;48.858;8.252;2022-11-14T09:48:52;100080.97;;;6.42;81.82
46598;BME280;32318;48.858;8.252;2022-11-14T09:56:53;100070.91;;;6.56;81.73
46598;BME280;32318;48.858;8.252;2022-11-14T10:21:44;100080.81;;;6.54;81.44
46598;BME280;32318;48.858;8.252;2022-11-14T10:38:21;100057.34;;;6.59;82.44
46598;BME280;32318;48.858;8.252;2022-11-14T10:46:31;100061.97;;;6.57;82.29
46598;BME280;32318;48.858;8.252;2022-11-14T10:54:41;100056.38;;;6.60;82.57
46598;BME280;32318;48.858;8.252;2022-11-14T11:02:51;100056.66;;;6.67;82.61
46598;BME280;32318;48.858;8.252;2022-11-14T11:10:57;100053.16;;;6.66;82.92
46598;BME280;32318;48.858;8.252;2022-11-14T11:19:23;100027.56;;;6.85;82.58
46598;BME280;32318;48.858;8.252;2022-11-14T11:27:29;100028.66;;;6.92;82.68
46598;BME280;32318;48.858;8.252;2022-11-14T11:35:29;100031.41;;;7.00;82.31
46598;BME280;32318;48.858;8.252;2022-11-14T11:43:41;100034.16;;;7.09;82.35
46598;BME280;32318;48.858;8.252;2022-11-14T11:51:45;100017.34;;;7.18;81.84
46598;BME280;32318;48.858;8.252;2022-11-14T11:59:49;100011.59;;;7.22;82.16
46598;BME280;32318;48.858;8.252;2022-11-14T12:08:00;99998.44;;;7.49;81.72
46598;BME280;32318;48.858;8.252;2022-11-14T12:32:48;100000.75;;;8.24;80.66
46598;BME280;32318;48.858;8.252;2022-11-14T12:40:54;99986.66;;;8.50;79.79
46598;BME280;32318;48.858;8.252;2022-11-14T12:48:55;99996.78;;;8.73;79.48
46598;BME280;32318;48.858;8.252;2022-11-14T12:56:58;99987.38;;;8.87;79.62
46598;BME280;32318;48.858;8.252;2022-11-14T13:05:46;99987.97;;;9.07;79.37
46598;BME280;32318;48.858;8.252;2022-11-14T13:14:00;99982.50;;;9.17;79.11
46598;BME280;32318;48.858;8.252;2022-11-14T13:22:40;99978.31;;;9.14;79.08
46598;BME280;32318;48.858;8.252;2022-11-14T14:12:59;99962.44;;;8.88;80.34
46598;BME280;32318;48.858;8.252;2022-11-14T14:21:22;99966.38;;;8.84;80.62
46598;BME280;32318;48.858;8.252;2022-11-14T14:37:35;99967.25;;;8.84;80.77
46598;BME280;32318;48.858;8.252;2022-11-14T14:45:47;99960.91;;;8.85;80.69
46598;BME280;32318;48.858;8.252;2022-11-14T14:53:51;99957.72;;;8.82;80.81
46598;BME280;32318;48.858;8.252;2022-11-14T15:01:52;99962.41;;;8.79;80.88
46598;BME280;32318;48.858;8.252;2022-11-14T15:09:57;99954.69;;;8.68;81.34
46598;BME280;32318;48.858;8.252;2022-11-14T15:18:01;99947.44;;;8.52;81.67
46598;BME280;32318;48.858;8.252;2022-11-14T15:26:03;99950.03;;;8.44;82.32
46598;BME280;32318;48.858;8.252;2022-11-14T15:34:19;99945.13;;;8.31;82.22
46598;BME280;32318;48.858;8.252;2022-11-14T15:50:31;99948.84;;;8.12;82.86
46598;BME280;32318;48.858;8.252;2022-11-14T15:58:32;99952.13;;;8.06;82.75
46598;BME280;32318;48.858;8.252;2022-11-14T16:06:33;99963.00;;;7.94;83.11
46598;BME280;32318;48.858;8.252;2022-11-14T16:14:33;99970.22;;;7.84;83.28
46598;BME280;32318;48.858;8.252;2022-11-14T16:22:33;99981.59;;;7.76;83.67
46598;BME280;32318;48.858;8.252;2022-11-14T16:30:34;99986.38;;;7.73;83.87
46598;BME280;32318;48.858;8.252;2022-11-14T16:38:34;99988.81;;;7.84;84.52
46598;BME280;32318;48.858;8.252;2022-11-14T16:46:37;99993.75;;;7.97;84.64
46598;BME280;32318;48.858;8.252;2022-11-14T17:03:23;100037.63;;;8.19;84.31
46598;BME280;32318;48.858;8.252;2022-11-14T17:11:24;100016.53;;;8.44;84.51
46598;BME280;32318;48.858;8.252;2022-11-14T17:19:24;100009.72;;;8.68;84.07
46598;BME280;32318;48.858;8.252;2022-11-14T17:27:26;99999.81;;;8.78;84.17
46598;BME280;32318;48.858;8.252;2022-11-14T17:35:26;100000.84;;;8.85;84.62
46598;BME280;32318;48.858;8.252;2022-11-14T17:43:26;100005.03;;;8.88;84.92
46598;BME280;32318;48.858;8.252;2022-11-14T17:51:27;100003.88;;;8.90;84.50
46598;BME280;32318;48.858;8.252;2022-11-14T17:59:27;99999.06;;;8.94;85.42
46598;BME280;32318;48.858;8.252;2022-11-14T18:07:28;100003.00;;;9.24;86.47
46598;BME280;32318;48.858;8.252;2022-11-14T18:15:30;100005.75;;;9.49;85.86
46598;BME280;32318;48.858;8.252;2022-11-14T18:23:30;100007.28;;;9.68;84.94
46598;BME280;32318;48.858;8.252;2022-11-14T18:31:31;100012.47;;;9.78;85.29
46598;BME280;32318;48.858;8.252;2022-11-14T18:39:31;100012.47;;;9.78;84.83
46598;BME280;32318;48.858;8.252;2022-11-14T18:47:31;100010.63;;;9.70;84.65
46598;BME280;32318;48.858;8.252;2022-11-14T18:55:31;100011.41;;;9.63;84.60
46598;BME280;32318;48.858;8.252;2022-11-14T19:03:32;100011.41;;;9.54;84.70
46598;BME280;32318;48.858;8.252;2022-11-14T19:11:32;100003.38;;;9.46;84.73
46598;BME280;32318;48.858;8.252;2022-11-14T19:19:51;100011.88;;;9.41;84.68
46598;BME280;32318;48.858;8.252;2022-11-14T19:27:55;100011.06;;;9.41;84.98
46598;BME280;32318;48.858;8.252;2022-11-14T19:35:55;99998.06;;;9.46;85.14
46598;BME280;32318;48.858;8.252;2022-11-14T19:43:57;100021.41;;;9.52;84.90
46598;BME280;32318;48.858;8.252;2022-11-14T19:51:57;100030.06;;;9.54;84.94
46598;BME280;32318;48.858;8.252;2022-11-14T19:59:57;100030.88;;;9.47;86.27
46598;BME280;32318;48.858;8.252;2022-11-14T20:07:58;100030.53;;;9.41;85.80
46598;BME280;32318;48.858;8.252;2022-11-14T20:15:58;100034.34;;;9.39;86.24
46598;BME280;32318;48.858;8.252;2022-11-14T20:23:59;100024.34;;;9.33;86.46
46598;BME280;32318;48.858;8.252;2022-11-14T20:31:59;100019.84;;;9.33;86.40
46598;BME280;32318;48.858;8.252;2022-11-14T20:40:00;100019.03;;;9.33;86.21
46598;BME280;32318;48.858;8.252;2022-11-14T20:48:00;100013.53;;;9.34;86.10
46598;BME280;32318;48.858;8.252;2022-11-14T20:56:00;100023.66;;;9.31;86.24
46598;BME280;32318;48.858;8.252;2022-11-14T21:04:03;100014.00;;;9.30;86.10
46598;BME280;32318;48.858;8.252;2022-11-14T21:12:03;100022.16;;;9.28;86.23
46598;BME280;32318;48.858;8.252;2022-11-14T21:20:04;100006.66;;;9.23;86.67
46598;BME280;32318;48.858;8.252;2022-11-14T21:28:05;100012.31;;;9.20;86.52
46598;BME280;32318;48.858;8.252;2022-11-14T21:36:10;100003.81;;;9.17;86.33
46598;BME280;32318;48.858;8.252;2022-11-14T21:44:12;100010.59;;;9.11;86.25
46598;BME280;32318;48.858;8.252;2022-11-14T21:52:13;100013.41;;;9.01;86.41
46598;BME280;32318;48.858;8.252;2022-11-14T22:00:14;100018.84;;;8.91;86.86
46598;BME280;32318;48.858;8.252;2022-11-14T22:08:14;100023.75;;;8.78;86.75
46598;BME280;32318;48.858;8.252;2022-11-14T22:16:15;100026.75;;;8.75;86.86
46598;BME280;32318;48.858;8.252;2022-11-14T22:24:18;100044.03;;;8.71;86.89
46598;BME280;32318;48.858;8.252;2022-11-14T22:32:19;100034.22;;;8.71;87.79
46598;BME280;32318;48.858;8.252;2022-11-14T22:40:19;100043.03;;;8.72;86.91
46598;BME280;32318;48.858;8.252;2022-11-14T22:48:19;100037.06;;;8.78;88.25
46598;BME280;32318;48.858;8.252;2022-11-14T22:56:22;100047.25;;;8.83;86.67
46598;BME280;32318;48.858;8.252;2022-11-14T23:04:23;100039.72;;;8.78;87.10
46598;BME280;32318;48.858;8.252;2022-11-14T23:12:24;100041.88;;;8.74;87.62
46598;BME280;32318;48.858;8.252;2022-11-14T23:20:25;100049.34;;;8.71;87.46
46598;BME280;32318;48.858;8.252;2022-11-14T23:28:28;100043.66;;;8.66;87.67
46598;BME280;32318;48.858;8.252;2022-11-14T23:36:29;100040.31;;;8.63;87.62
46598;BME280;32318;48.858;8.252;2022-11-14T23:44:29;100029.16;;;8.60;87.62
46598;BME280;32318;48.858;8.252;2022-11-14T23:52:29;100017.66;;;8.59;87.75
